Flight Number: EUR2433 Duration: 1:15
Departure: Geneva Cointrin Airport (LSGG) at 07:30 Distance: 462 Nm
Arrival: Split (LDSP) at 08:45 Equipment: A321

Weather Information
Geneve-Cointrin, Switzerland (LSGG) 46-15N 006-08E 416M Jan 22, 2018 - 02:50 AM EST / 2018.01.22 0750 UTC
Wind: from the N (360 degrees) at 3 MPH (3 KT):0
Visibility: 3 mile(s):0
Sky conditions: mostly cloudy Weather: rain Temperature: 44 F (7 C) Dew Point: 44 F (7 C) Relative Humidity: 100% Pressure (altimeter): 30.03 in. Hg (1017 hPa)
ob: LSGG 220750Z 36003KT 5000 RA SCT008 BKN030 07/07 Q1017 NOSIG cycle: 8
Sunrise: 07:12 Sunset: 16:22 (UTC)

Split / Resnik, Croatia (LDSP) 43-32N 016-18E 21M Jan 22, 2018 - 03:00 AM EST / 2018.01.22 0800 UTC
Wind: from the NNE (030 degrees) at 7 MPH (6 KT) (direction variable):0
Visibility: greater than 7 mile(s):0 Temperature: 42 F (6 C) Dew Point: 17 F (-8 C) Relative Humidity: 35% Pressure (altimeter): 30.03 in. Hg (1017 hPa)
ob: LDSP 220800Z 03006KT 360V080 CAVOK 06/M08 Q1017 NOSIG cycle: 8
Sunrise: 06:23 Sunset: 15:49 (UTC)

TAF:2018/01/22 06:27 TAF LDSP 220525Z 2206/2306 35008KT CAVOK TX09/2214Z TN02/2206Z

Previous Pireps for this route
Date Aircraft Flight time Fuel used Landing rate On time
2016-04-06A32101.2812708-258No
2016-08-28A32101.419894-217No
(pireps marked green are flown by you)

Route map